sensor_id;sensor_type;location;lat;lon;timestamp;P1;durP1;ratioP1;P2;durP2;ratioP2
69047;SDS011;56119;50.118;8.642;2023-01-09T00:01:31;4.43;;;1.90;;
69047;SDS011;56119;50.118;8.642;2023-01-09T00:03:57;2.80;;;1.60;;
69047;SDS011;56119;50.118;8.642;2023-01-09T00:06:23;3.88;;;2.03;;
69047;SDS011;56119;50.118;8.642;2023-01-09T00:08:49;3.30;;;2.00;;
69047;SDS011;56119;50.118;8.642;2023-01-09T00:11:15;3.28;;;2.17;;
69047;SDS011;56119;50.118;8.642;2023-01-09T00:13:41;3.70;;;2.15;;
69047;SDS011;56119;50.118;8.642;2023-01-09T00:16:07;3.33;;;2.25;;
69047;SDS011;56119;50.118;8.642;2023-01-09T00:18:33;3.40;;;2.05;;
69047;SDS011;56119;50.118;8.642;2023-01-09T00:21:00;3.35;;;2.30;;
69047;SDS011;56119;50.118;8.642;2023-01-09T00:23:26;3.70;;;2.20;;
69047;SDS011;56119;50.118;8.642;2023-01-09T00:26:05;5.28;;;2.78;;
69047;SDS011;56119;50.118;8.642;2023-01-09T00:28:32;4.13;;;2.90;;
69047;SDS011;56119;50.118;8.642;2023-01-09T00:30:59;6.20;;;3.13;;
69047;SDS011;56119;50.118;8.642;2023-01-09T00:33:26;3.80;;;3.03;;
69047;SDS011;56119;50.118;8.642;2023-01-09T00:35:53;4.60;;;3.67;;
69047;SDS011;56119;50.118;8.642;2023-01-09T00:38:19;4.20;;;3.80;;
69047;SDS011;56119;50.118;8.642;2023-01-09T00:40:45;5.80;;;4.10;;
69047;SDS011;56119;50.118;8.642;2023-01-09T00:43:11;6.53;;;4.13;;
69047;SDS011;56119;50.118;8.642;2023-01-09T00:45:37;6.13;;;4.55;;
69047;SDS011;56119;50.118;8.642;2023-01-09T00:48:06;6.88;;;4.30;;
69047;SDS011;56119;50.118;8.642;2023-01-09T00:50:33;5.70;;;4.25;;
69047;SDS011;56119;50.118;8.642;2023-01-09T00:53:02;5.22;;;4.35;;
69047;SDS011;56119;50.118;8.642;2023-01-09T00:55:30;7.38;;;4.82;;
69047;SDS011;56119;50.118;8.642;2023-01-09T00:57:56;7.88;;;5.03;;
69047;SDS011;56119;50.118;8.642;2023-01-09T01:00:22;7.03;;;4.78;;
69047;SDS011;56119;50.118;8.642;2023-01-09T01:02:48;6.22;;;5.18;;
69047;SDS011;56119;50.118;8.642;2023-01-09T01:05:14;7.57;;;5.45;;
69047;SDS011;56119;50.118;8.642;2023-01-09T01:07:59;7.63;;;5.10;;
69047;SDS011;56119;50.118;8.642;2023-01-09T01:10:25;5.78;;;5.18;;
69047;SDS011;56119;50.118;8.642;2023-01-09T01:12:51;6.22;;;5.10;;
69047;SDS011;56119;50.118;8.642;2023-01-09T01:15:18;7.20;;;4.68;;
69047;SDS011;56119;50.118;8.642;2023-01-09T01:17:45;6.95;;;4.93;;
69047;SDS011;56119;50.118;8.642;2023-01-09T01:20:13;6.20;;;5.32;;
69047;SDS011;56119;50.118;8.642;2023-01-09T01:22:40;6.47;;;4.22;;
69047;SDS011;56119;50.118;8.642;2023-01-09T01:25:07;5.15;;;4.43;;
69047;SDS011;56119;50.118;8.642;2023-01-09T01:27:33;5.40;;;4.53;;
69047;SDS011;56119;50.118;8.642;2023-01-09T01:29:59;6.38;;;5.30;;
69047;SDS011;56119;50.118;8.642;2023-01-09T01:32:25;5.78;;;4.25;;
69047;SDS011;56119;50.118;8.642;2023-01-09T01:34:51;6.45;;;5.43;;
69047;SDS011;56119;50.118;8.642;2023-01-09T01:37:17;7.38;;;5.05;;
69047;SDS011;56119;50.118;8.642;2023-01-09T01:39:43;6.07;;;5.10;;
69047;SDS011;56119;50.118;8.642;2023-01-09T01:42:11;7.07;;;4.80;;
69047;SDS011;56119;50.118;8.642;2023-01-09T01:47:22;5.95;;;5.07;;
69047;SDS011;56119;50.118;8.642;2023-01-09T01:49:49;6.35;;;5.03;;
69047;SDS011;56119;50.118;8.642;2023-01-09T01:52:16;6.93;;;5.70;;
69047;SDS011;56119;50.118;8.642;2023-01-09T01:54:43;7.93;;;5.60;;
69047;SDS011;56119;50.118;8.642;2023-01-09T01:57:09;6.82;;;5.65;;
69047;SDS011;56119;50.118;8.642;2023-01-09T02:02:01;7.50;;;6.07;;
69047;SDS011;56119;50.118;8.642;2023-01-09T02:04:27;8.65;;;6.90;;
69047;SDS011;56119;50.118;8.642;2023-01-09T02:06:54;8.27;;;6.55;;
69047;SDS011;56119;50.118;8.642;2023-01-09T02:09:21;6.80;;;5.90;;
69047;SDS011;56119;50.118;8.642;2023-01-09T02:11:49;7.88;;;6.60;;
69047;SDS011;56119;50.118;8.642;2023-01-09T02:14:20;8.40;;;5.45;;
69047;SDS011;56119;50.118;8.642;2023-01-09T02:24:35;4.93;;;4.20;;
69047;SDS011;56119;50.118;8.642;2023-01-09T02:33:06;5.55;;;4.63;;
69047;SDS011;56119;50.118;8.642;2023-01-09T02:35:15;5.88;;;4.55;;
69047;SDS011;56119;50.118;8.642;2023-01-09T02:37:43;7.45;;;5.30;;
69047;SDS011;56119;50.118;8.642;2023-01-09T02:40:21;6.38;;;4.90;;
69047;SDS011;56119;50.118;8.642;2023-01-09T02:42:48;4.97;;;4.03;;
69047;SDS011;56119;50.118;8.642;2023-01-09T02:45:14;4.38;;;3.72;;
69047;SDS011;56119;50.118;8.642;2023-01-09T02:47:42;5.55;;;3.80;;
69047;SDS011;56119;50.118;8.642;2023-01-09T02:50:09;5.45;;;4.32;;
69047;SDS011;56119;50.118;8.642;2023-01-09T02:52:56;5.45;;;4.53;;
69047;SDS011;56119;50.118;8.642;2023-01-09T03:03:06;5.38;;;3.92;;
69047;SDS011;56119;50.118;8.642;2023-01-09T03:05:39;5.05;;;3.40;;
69047;SDS011;56119;50.118;8.642;2023-01-09T03:08:07;3.58;;;2.78;;
69047;SDS011;56119;50.118;8.642;2023-01-09T03:10:47;4.45;;;3.30;;
69047;SDS011;56119;50.118;8.642;2023-01-09T03:13:16;3.65;;;2.83;;
69047;SDS011;56119;50.118;8.642;2023-01-09T03:15:43;3.40;;;2.67;;
69047;SDS011;56119;50.118;8.642;2023-01-09T03:18:10;5.32;;;2.78;;
69047;SDS011;56119;50.118;8.642;2023-01-09T03:20:38;2.72;;;2.08;;
69047;SDS011;56119;50.118;8.642;2023-01-09T03:23:05;3.70;;;1.70;;
69047;SDS011;56119;50.118;8.642;2023-01-09T03:25:32;2.50;;;1.70;;
69047;SDS011;56119;50.118;8.642;2023-01-09T03:28:03;3.30;;;1.60;;
69047;SDS011;56119;50.118;8.642;2023-01-09T03:30:30;3.95;;;1.45;;
69047;SDS011;56119;50.118;8.642;2023-01-09T03:32:57;2.38;;;1.25;;
69047;SDS011;56119;50.118;8.642;2023-01-09T03:35:23;1.55;;;1.25;;
69047;SDS011;56119;50.118;8.642;2023-01-09T03:37:49;2.33;;;1.35;;
69047;SDS011;56119;50.118;8.642;2023-01-09T03:40:16;1.67;;;1.25;;
69047;SDS011;56119;50.118;8.642;2023-01-09T03:42:42;1.48;;;1.10;;
69047;SDS011;56119;50.118;8.642;2023-01-09T03:45:08;2.08;;;1.10;;
69047;SDS011;56119;50.118;8.642;2023-01-09T03:47:34;1.85;;;1.00;;
69047;SDS011;56119;50.118;8.642;2023-01-09T03:50:00;0.90;;;0.85;;
69047;SDS011;56119;50.118;8.642;2023-01-09T03:52:26;0.80;;;0.65;;
69047;SDS011;56119;50.118;8.642;2023-01-09T03:54:52;0.88;;;0.70;;
69047;SDS011;56119;50.118;8.642;2023-01-09T03:57:18;0.68;;;0.60;;
69047;SDS011;56119;50.118;8.642;2023-01-09T03:59:44;0.60;;;0.50;;
69047;SDS011;56119;50.118;8.642;2023-01-09T04:02:10;1.77;;;0.70;;
69047;SDS011;56119;50.118;8.642;2023-01-09T04:04:35;3.13;;;0.70;;
69047;SDS011;56119;50.118;8.642;2023-01-09T04:07:02;1.35;;;0.50;;
69047;SDS011;56119;50.118;8.642;2023-01-09T04:09:28;1.55;;;0.50;;
69047;SDS011;56119;50.118;8.642;2023-01-09T04:11:54;1.52;;;0.50;;
69047;SDS011;56119;50.118;8.642;2023-01-09T04:14:19;0.50;;;0.50;;
69047;SDS011;56119;50.118;8.642;2023-01-09T04:16:45;0.70;;;0.50;;
69047;SDS011;56119;50.118;8.642;2023-01-09T04:19:11;1.42;;;0.70;;
69047;SDS011;56119;50.118;8.642;2023-01-09T04:21:37;1.05;;;0.55;;
69047;SDS011;56119;50.118;8.642;2023-01-09T04:24:03;0.47;;;0.40;;
69047;SDS011;56119;50.118;8.642;2023-01-09T04:26:29;1.38;;;0.50;;
69047;SDS011;56119;50.118;8.642;2023-01-09T04:28:55;0.40;;;0.40;;
69047;SDS011;56119;50.118;8.642;2023-01-09T04:31:21;1.05;;;0.50;;
69047;SDS011;56119;50.118;8.642;2023-01-09T04:33:47;0.95;;;0.55;;
69047;SDS011;56119;50.118;8.642;2023-01-09T04:36:13;0.77;;;0.60;;
69047;SDS011;56119;50.118;8.642;2023-01-09T04:38:39;1.95;;;0.50;;
69047;SDS011;56119;50.118;8.642;2023-01-09T04:41:05;1.15;;;0.60;;
69047;SDS011;56119;50.118;8.642;2023-01-09T04:43:31;2.40;;;0.70;;
69047;SDS011;56119;50.118;8.642;2023-01-09T04:45:57;1.13;;;0.55;;
69047;SDS011;56119;50.118;8.642;2023-01-09T04:48:23;0.93;;;0.73;;
69047;SDS011;56119;50.118;8.642;2023-01-09T04:50:49;1.85;;;0.80;;
69047;SDS011;56119;50.118;8.642;2023-01-09T04:53:15;1.13;;;0.70;;
69047;SDS011;56119;50.118;8.642;2023-01-09T04:55:41;0.43;;;0.43;;
69047;SDS011;56119;50.118;8.642;2023-01-09T04:58:07;1.17;;;0.57;;
69047;SDS011;56119;50.118;8.642;2023-01-09T05:00:33;0.55;;;0.40;;
69047;SDS011;56119;50.118;8.642;2023-01-09T05:02:59;1.50;;;0.30;;
69047;SDS011;56119;50.118;8.642;2023-01-09T05:05:26;0.70;;;0.50;;
69047;SDS011;56119;50.118;8.642;2023-01-09T05:07:52;1.48;;;0.30;;
69047;SDS011;56119;50.118;8.642;2023-01-09T05:10:18;0.55;;;0.30;;
69047;SDS011;56119;50.118;8.642;2023-01-09T05:12:44;0.55;;;0.43;;
69047;SDS011;56119;50.118;8.642;2023-01-09T05:15:10;0.47;;;0.30;;
69047;SDS011;56119;50.118;8.642;2023-01-09T05:17:37;0.40;;;0.40;;
69047;SDS011;56119;50.118;8.642;2023-01-09T05:20:03;0.73;;;0.47;;
69047;SDS011;56119;50.118;8.642;2023-01-09T05:22:29;0.47;;;0.38;;
69047;SDS011;56119;50.118;8.642;2023-01-09T05:24:55;0.55;;;0.45;;
69047;SDS011;56119;50.118;8.642;2023-01-09T05:27:21;1.48;;;0.85;;
69047;SDS011;56119;50.118;8.642;2023-01-09T05:29:47;2.47;;;0.70;;
69047;SDS011;56119;50.118;8.642;2023-01-09T05:32:13;0.40;;;0.38;;
69047;SDS011;56119;50.118;8.642;2023-01-09T05:34:39;0.60;;;0.35;;
69047;SDS011;56119;50.118;8.642;2023-01-09T05:37:05;0.70;;;0.47;;
69047;SDS011;56119;50.118;8.642;2023-01-09T05:39:31;1.50;;;0.60;;
69047;SDS011;56119;50.118;8.642;2023-01-09T05:41:57;0.30;;;0.30;;
69047;SDS011;56119;50.118;8.642;2023-01-09T05:44:23;1.67;;;0.50;;
69047;SDS011;56119;50.118;8.642;2023-01-09T05:46:49;0.63;;;0.50;;
69047;SDS011;56119;50.118;8.642;2023-01-09T05:49:15;2.05;;;0.40;;
69047;SDS011;56119;50.118;8.642;2023-01-09T05:51:44;1.75;;;0.68;;
69047;SDS011;56119;50.118;8.642;2023-01-09T05:54:10;2.72;;;0.52;;
69047;SDS011;56119;50.118;8.642;2023-01-09T05:56:36;1.42;;;0.57;;
69047;SDS011;56119;50.118;8.642;2023-01-09T05:59:02;0.88;;;0.45;;
69047;SDS011;56119;50.118;8.642;2023-01-09T06:01:28;0.70;;;0.40;;
69047;SDS011;56119;50.118;8.642;2023-01-09T06:03:54;1.77;;;0.50;;
69047;SDS011;56119;50.118;8.642;2023-01-09T06:06:20;1.02;;;0.70;;
69047;SDS011;56119;50.118;8.642;2023-01-09T06:08:48;0.77;;;0.40;;
69047;SDS011;56119;50.118;8.642;2023-01-09T06:11:13;0.70;;;0.40;;
69047;SDS011;56119;50.118;8.642;2023-01-09T06:13:39;0.63;;;0.50;;
69047;SDS011;56119;50.118;8.642;2023-01-09T06:16:06;0.75;;;0.50;;
69047;SDS011;56119;50.118;8.642;2023-01-09T06:18:32;2.45;;;0.52;;
69047;SDS011;56119;50.118;8.642;2023-01-09T06:20:58;2.50;;;0.60;;
69047;SDS011;56119;50.118;8.642;2023-01-09T06:23:24;0.60;;;0.50;;
69047;SDS011;56119;50.118;8.642;2023-01-09T06:25:49;2.97;;;0.50;;
69047;SDS011;56119;50.118;8.642;2023-01-09T06:28:15;3.25;;;0.52;;
69047;SDS011;56119;50.118;8.642;2023-01-09T06:30:41;3.20;;;0.85;;
69047;SDS011;56119;50.118;8.642;2023-01-09T06:33:07;1.15;;;0.52;;
69047;SDS011;56119;50.118;8.642;2023-01-09T06:35:33;1.50;;;0.75;;
69047;SDS011;56119;50.118;8.642;2023-01-09T06:37:59;1.40;;;0.65;;
69047;SDS011;56119;50.118;8.642;2023-01-09T06:40:27;3.72;;;0.95;;
69047;SDS011;56119;50.118;8.642;2023-01-09T06:42:53;2.92;;;0.70;;
69047;SDS011;56119;50.118;8.642;2023-01-09T06:45:19;1.13;;;0.70;;
69047;SDS011;56119;50.118;8.642;2023-01-09T06:47:45;2.38;;;0.93;;
69047;SDS011;56119;50.118;8.642;2023-01-09T06:50:11;1.23;;;0.50;;
69047;SDS011;56119;50.118;8.642;2023-01-09T06:52:37;1.95;;;0.70;;
69047;SDS011;56119;50.118;8.642;2023-01-09T06:55:03;2.90;;;0.90;;
69047;SDS011;56119;50.118;8.642;2023-01-09T06:57:29;2.33;;;0.90;;
69047;SDS011;56119;50.118;8.642;2023-01-09T06:59:55;3.90;;;0.80;;
69047;SDS011;56119;50.118;8.642;2023-01-09T07:02:21;1.90;;;0.68;;
69047;SDS011;56119;50.118;8.642;2023-01-09T07:04:47;4.80;;;0.80;;
69047;SDS011;56119;50.118;8.642;2023-01-09T07:07:13;4.68;;;0.75;;
69047;SDS011;56119;50.118;8.642;2023-01-09T07:09:40;4.80;;;1.00;;
69047;SDS011;56119;50.118;8.642;2023-01-09T07:12:06;7.15;;;1.40;;
69047;SDS011;56119;50.118;8.642;2023-01-09T07:14:32;3.80;;;1.20;;
69047;SDS011;56119;50.118;8.642;2023-01-09T07:16:58;3.58;;;1.30;;
69047;SDS011;56119;50.118;8.642;2023-01-09T07:19:24;4.32;;;1.00;;
69047;SDS011;56119;50.118;8.642;2023-01-09T07:21:50;5.30;;;1.20;;
69047;SDS011;56119;50.118;8.642;2023-01-09T07:24:19;1.98;;;0.82;;
69047;SDS011;56119;50.118;8.642;2023-01-09T07:26:45;3.88;;;1.42;;
69047;SDS011;56119;50.118;8.642;2023-01-09T07:29:11;2.00;;;0.93;;
69047;SDS011;56119;50.118;8.642;2023-01-09T07:31:37;3.35;;;0.90;;
69047;SDS011;56119;50.118;8.642;2023-01-09T07:34:03;5.15;;;0.93;;
69047;SDS011;56119;50.118;8.642;2023-01-09T07:36:29;2.67;;;1.30;;
69047;SDS011;56119;50.118;8.642;2023-01-09T07:38:55;2.20;;;0.88;;
69047;SDS011;56119;50.118;8.642;2023-01-09T07:41:21;3.75;;;1.05;;
69047;SDS011;56119;50.118;8.642;2023-01-09T07:43:47;5.57;;;1.25;;
69047;SDS011;56119;50.118;8.642;2023-01-09T07:46:13;4.88;;;1.60;;
69047;SDS011;56119;50.118;8.642;2023-01-09T07:48:39;7.43;;;1.27;;
69047;SDS011;56119;50.118;8.642;2023-01-09T07:51:05;3.22;;;0.85;;
69047;SDS011;56119;50.118;8.642;2023-01-09T07:53:31;3.83;;;1.10;;
69047;SDS011;56119;50.118;8.642;2023-01-09T07:55:57;2.17;;;0.80;;
69047;SDS011;56119;50.118;8.642;2023-01-09T07:58:23;5.50;;;1.10;;
69047;SDS011;56119;50.118;8.642;2023-01-09T08:00:49;6.60;;;0.88;;
69047;SDS011;56119;50.118;8.642;2023-01-09T08:03:15;4.15;;;0.98;;
69047;SDS011;56119;50.118;8.642;2023-01-09T08:05:41;2.78;;;1.30;;
69047;SDS011;56119;50.118;8.642;2023-01-09T08:08:07;5.22;;;1.33;;
69047;SDS011;56119;50.118;8.642;2023-01-09T08:10:33;2.60;;;0.88;;
69047;SDS011;56119;50.118;8.642;2023-01-09T08:12:59;3.40;;;0.90;;
69047;SDS011;56119;50.118;8.642;2023-01-09T08:15:25;2.72;;;1.05;;
69047;SDS011;56119;50.118;8.642;2023-01-09T08:17:51;3.15;;;0.90;;
69047;SDS011;56119;50.118;8.642;2023-01-09T08:20:17;1.50;;;0.63;;
69047;SDS011;56119;50.118;8.642;2023-01-09T08:22:45;3.88;;;0.85;;
69047;SDS011;56119;50.118;8.642;2023-01-09T08:25:13;3.35;;;0.55;;
69047;SDS011;56119;50.118;8.642;2023-01-09T08:27:40;3.33;;;1.00;;
69047;SDS011;56119;50.118;8.642;2023-01-09T08:30:07;4.22;;;0.90;;
69047;SDS011;56119;50.118;8.642;2023-01-09T08:32:34;4.18;;;0.93;;
69047;SDS011;56119;50.118;8.642;2023-01-09T08:35:01;3.53;;;1.00;;
69047;SDS011;56119;50.118;8.642;2023-01-09T08:37:27;4.22;;;0.90;;
69047;SDS011;56119;50.118;8.642;2023-01-09T08:39:53;3.28;;;1.00;;
69047;SDS011;56119;50.118;8.642;2023-01-09T08:42:19;4.78;;;1.05;;
69047;SDS011;56119;50.118;8.642;2023-01-09T08:45:04;3.47;;;0.65;;
69047;SDS011;56119;50.118;8.642;2023-01-09T08:47:48;2.38;;;0.90;;
69047;SDS011;56119;50.118;8.642;2023-01-09T08:50:15;3.35;;;0.73;;
69047;SDS011;56119;50.118;8.642;2023-01-09T08:52:41;8.30;;;0.85;;
69047;SDS011;56119;50.118;8.642;2023-01-09T08:55:07;3.25;;;0.98;;
69047;SDS011;56119;50.118;8.642;2023-01-09T08:57:33;4.72;;;0.88;;
69047;SDS011;56119;50.118;8.642;2023-01-09T08:59:59;4.95;;;1.25;;
69047;SDS011;56119;50.118;8.642;2023-01-09T09:02:25;2.65;;;1.30;;
69047;SDS011;56119;50.118;8.642;2023-01-09T09:04:51;5.30;;;0.95;;
69047;SDS011;56119;50.118;8.642;2023-01-09T09:07:18;7.00;;;1.13;;
69047;SDS011;56119;50.118;8.642;2023-01-09T09:09:50;2.42;;;0.88;;
69047;SDS011;56119;50.118;8.642;2023-01-09T09:12:17;3.22;;;0.82;;
69047;SDS011;56119;50.118;8.642;2023-01-09T09:14:43;4.32;;;0.90;;
69047;SDS011;56119;50.118;8.642;2023-01-09T09:17:27;2.53;;;1.00;;
69047;SDS011;56119;50.118;8.642;2023-01-09T09:19:53;5.03;;;0.88;;
69047;SDS011;56119;50.118;8.642;2023-01-09T09:22:19;1.67;;;0.60;;
69047;SDS011;56119;50.118;8.642;2023-01-09T09:24:45;2.75;;;0.80;;
69047;SDS011;56119;50.118;8.642;2023-01-09T09:27:11;2.92;;;0.82;;
69047;SDS011;56119;50.118;8.642;2023-01-09T09:29:37;3.00;;;0.70;;
69047;SDS011;56119;50.118;8.642;2023-01-09T09:32:03;1.08;;;0.63;;
69047;SDS011;56119;50.118;8.642;2023-01-09T09:34:29;2.58;;;0.63;;
69047;SDS011;56119;50.118;8.642;2023-01-09T09:36:55;2.25;;;0.63;;
69047;SDS011;56119;50.118;8.642;2023-01-09T09:39:21;3.00;;;0.77;;
69047;SDS011;56119;50.118;8.642;2023-01-09T09:41:55;2.90;;;0.65;;
69047;SDS011;56119;50.118;8.642;2023-01-09T09:52:17;3.72;;;0.68;;
69047;SDS011;56119;50.118;8.642;2023-01-09T09:54:46;3.60;;;0.88;;
69047;SDS011;56119;50.118;8.642;2023-01-09T09:57:16;2.15;;;0.60;;
69047;SDS011;56119;50.118;8.642;2023-01-09T09:59:42;2.55;;;0.70;;
69047;SDS011;56119;50.118;8.642;2023-01-09T10:04:48;1.88;;;1.25;;
69047;SDS011;56119;50.118;8.642;2023-01-09T10:07:27;2.60;;;0.50;;
69047;SDS011;56119;50.118;8.642;2023-01-09T10:09:59;2.83;;;0.60;;
69047;SDS011;56119;50.118;8.642;2023-01-09T10:12:30;3.30;;;0.57;;
69047;SDS011;56119;50.118;8.642;2023-01-09T10:15:08;2.28;;;0.70;;
69047;SDS011;56119;50.118;8.642;2023-01-09T10:17:42;5.00;;;0.80;;
69047;SDS011;56119;50.118;8.642;2023-01-09T10:25:37;1.65;;;0.60;;
69047;SDS011;56119;50.118;8.642;2023-01-09T10:28:17;4.90;;;0.85;;
69047;SDS011;56119;50.118;8.642;2023-01-09T10:36:43;2.00;;;0.60;;
69047;SDS011;56119;50.118;8.642;2023-01-09T10:39:22;1.80;;;0.60;;
69047;SDS011;56119;50.118;8.642;2023-01-09T10:41:54;2.60;;;1.73;;
69047;SDS011;56119;50.118;8.642;2023-01-09T10:46:54;2.95;;;0.90;;
69047;SDS011;56119;50.118;8.642;2023-01-09T10:49:21;1.92;;;0.60;;
69047;SDS011;56119;50.118;8.642;2023-01-09T10:51:48;4.10;;;0.90;;
69047;SDS011;56119;50.118;8.642;2023-01-09T10:54:15;3.58;;;0.88;;
69047;SDS011;56119;50.118;8.642;2023-01-09T10:57:17;5.03;;;0.90;;
69047;SDS011;56119;50.118;8.642;2023-01-09T10:59:35;2.97;;;0.73;;
69047;SDS011;56119;50.118;8.642;2023-01-09T11:02:00;1.60;;;0.70;;
69047;SDS011;56119;50.118;8.642;2023-01-09T11:04:30;6.55;;;1.00;;
69047;SDS011;56119;50.118;8.642;2023-01-09T11:06:58;3.38;;;0.70;;
69047;SDS011;56119;50.118;8.642;2023-01-09T11:09:25;3.63;;;0.80;;
69047;SDS011;56119;50.118;8.642;2023-01-09T11:11:51;2.22;;;0.82;;
69047;SDS011;56119;50.118;8.642;2023-01-09T11:14:26;1.88;;;0.52;;
69047;SDS011;56119;50.118;8.642;2023-01-09T11:17:00;2.08;;;0.80;;
69047;SDS011;56119;50.118;8.642;2023-01-09T11:19:28;1.88;;;0.68;;
69047;SDS011;56119;50.118;8.642;2023-01-09T11:22:05;1.58;;;0.70;;
69047;SDS011;56119;50.118;8.642;2023-01-09T11:24:31;1.33;;;0.55;;
69047;SDS011;56119;50.118;8.642;2023-01-09T11:29:39;4.57;;;0.90;;
69047;SDS011;56119;50.118;8.642;2023-01-09T11:32:15;1.80;;;0.77;;
69047;SDS011;56119;50.118;8.642;2023-01-09T11:34:44;2.58;;;1.05;;
69047;SDS011;56119;50.118;8.642;2023-01-09T11:37:11;2.30;;;0.75;;
69047;SDS011;56119;50.118;8.642;2023-01-09T11:39:39;1.98;;;0.70;;
69047;SDS011;56119;50.118;8.642;2023-01-09T11:42:23;4.68;;;1.88;;
69047;SDS011;56119;50.118;8.642;2023-01-09T11:48:01;3.10;;;0.68;;
69047;SDS011;56119;50.118;8.642;2023-01-09T11:50:40;3.22;;;0.90;;
69047;SDS011;56119;50.118;8.642;2023-01-09T11:53:18;2.08;;;0.70;;
69047;SDS011;56119;50.118;8.642;2023-01-09T11:55:45;2.15;;;0.55;;
69047;SDS011;56119;50.118;8.642;2023-01-09T11:58:20;3.92;;;0.77;;
69047;SDS011;56119;50.118;8.642;2023-01-09T12:00:51;3.08;;;0.60;;
69047;SDS011;56119;50.118;8.642;2023-01-09T12:03:22;2.35;;;0.80;;
69047;SDS011;56119;50.118;8.642;2023-01-09T12:05:58;5.30;;;0.82;;
69047;SDS011;56119;50.118;8.642;2023-01-09T12:13:30;5.22;;;1.20;;
69047;SDS011;56119;50.118;8.642;2023-01-09T12:28:49;3.42;;;0.80;;
69047;SDS011;56119;50.118;8.642;2023-01-09T12:31:21;3.90;;;0.80;;
69047;SDS011;56119;50.118;8.642;2023-01-09T12:33:56;8.00;;;1.02;;
69047;SDS011;56119;50.118;8.642;2023-01-09T12:39:03;2.63;;;1.02;;
69047;SDS011;56119;50.118;8.642;2023-01-09T12:41:46;2.63;;;1.02;;
69047;SDS011;56119;50.118;8.642;2023-01-09T12:46:51;5.47;;;1.20;;
69047;SDS011;56119;50.118;8.642;2023-01-09T12:49:23;3.72;;;1.10;;
69047;SDS011;56119;50.118;8.642;2023-01-09T12:57:06;3.30;;;0.80;;
69047;SDS011;56119;50.118;8.642;2023-01-09T12:59:41;3.45;;;1.25;;
69047;SDS011;56119;50.118;8.642;2023-01-09T13:02:15;4.10;;;0.85;;
69047;SDS011;56119;50.118;8.642;2023-01-09T13:04:53;2.95;;;0.85;;
69047;SDS011;56119;50.118;8.642;2023-01-09T13:07:26;4.60;;;1.05;;
69047;SDS011;56119;50.118;8.642;2023-01-09T13:09:55;4.43;;;1.00;;
69047;SDS011;56119;50.118;8.642;2023-01-09T13:12:22;3.00;;;0.88;;
69047;SDS011;56119;50.118;8.642;2023-01-09T13:15:00;1.27;;;0.70;;
69047;SDS011;56119;50.118;8.642;2023-01-09T13:17:37;2.08;;;0.77;;
69047;SDS011;56119;50.118;8.642;2023-01-09T13:20:13;2.95;;;0.80;;
69047;SDS011;56119;50.118;8.642;2023-01-09T13:22:42;4.65;;;1.23;;
69047;SDS011;56119;50.118;8.642;2023-01-09T13:27:48;3.03;;;0.80;;
69047;SDS011;56119;50.118;8.642;2023-01-09T13:30:17;2.65;;;0.77;;
69047;SDS011;56119;50.118;8.642;2023-01-09T13:35:13;2.17;;;0.63;;
69047;SDS011;56119;50.118;8.642;2023-01-09T13:37:40;4.00;;;1.20;;
69047;SDS011;56119;50.118;8.642;2023-01-09T13:40:27;3.55;;;0.80;;
69047;SDS011;56119;50.118;8.642;2023-01-09T13:45:23;2.03;;;0.73;;
69047;SDS011;56119;50.118;8.642;2023-01-09T13:48:37;1.55;;;0.50;;
69047;SDS011;56119;50.118;8.642;2023-01-09T13:50:38;3.08;;;0.75;;
69047;SDS011;56119;50.118;8.642;2023-01-09T14:01:05;1.05;;;0.45;;
69047;SDS011;56119;50.118;8.642;2023-01-09T14:06:35;2.50;;;0.65;;
69047;SDS011;56119;50.118;8.642;2023-01-09T14:09:11;1.30;;;0.47;;
69047;SDS011;56119;50.118;8.642;2023-01-09T14:11:41;2.72;;;0.73;;
69047;SDS011;56119;50.118;8.642;2023-01-09T14:14:13;2.67;;;0.52;;
69047;SDS011;56119;50.118;8.642;2023-01-09T14:16:42;1.52;;;0.50;;
69047;SDS011;56119;50.118;8.642;2023-01-09T14:21:42;1.58;;;0.50;;
69047;SDS011;56119;50.118;8.642;2023-01-09T14:24:08;1.58;;;0.70;;
69047;SDS011;56119;50.118;8.642;2023-01-09T14:26:44;2.20;;;0.60;;
69047;SDS011;56119;50.118;8.642;2023-01-09T14:34:40;0.77;;;0.40;;
69047;SDS011;56119;50.118;8.642;2023-01-09T14:37:07;1.40;;;0.60;;
69047;SDS011;56119;50.118;8.642;2023-01-09T14:39:36;1.20;;;0.30;;
69047;SDS011;56119;50.118;8.642;2023-01-09T14:42:04;1.05;;;0.50;;
69047;SDS011;56119;50.118;8.642;2023-01-09T14:47:14;2.30;;;0.60;;
69047;SDS011;56119;50.118;8.642;2023-01-09T14:49:53;3.08;;;0.80;;
69047;SDS011;56119;50.118;8.642;2023-01-09T14:52:21;2.28;;;0.70;;
69047;SDS011;56119;50.118;8.642;2023-01-09T14:54:48;1.08;;;0.40;;
69047;SDS011;56119;50.118;8.642;2023-01-09T14:57:22;2.30;;;0.50;;
69047;SDS011;56119;50.118;8.642;2023-01-09T14:59:58;2.40;;;0.70;;
69047;SDS011;56119;50.118;8.642;2023-01-09T15:02:25;1.53;;;0.60;;
69047;SDS011;56119;50.118;8.642;2023-01-09T15:04:53;1.27;;;0.50;;
69047;SDS011;56119;50.118;8.642;2023-01-09T15:07:20;1.50;;;0.47;;
69047;SDS011;56119;50.118;8.642;2023-01-09T15:09:49;2.88;;;0.57;;
69047;SDS011;56119;50.118;8.642;2023-01-09T15:12:17;3.15;;;0.70;;
69047;SDS011;56119;50.118;8.642;2023-01-09T15:14:44;1.42;;;0.52;;
69047;SDS011;56119;50.118;8.642;2023-01-09T15:17:24;1.77;;;0.55;;
69047;SDS011;56119;50.118;8.642;2023-01-09T15:19:50;1.52;;;0.50;;
69047;SDS011;56119;50.118;8.642;2023-01-09T15:24:46;1.70;;;0.70;;
69047;SDS011;56119;50.118;8.642;2023-01-09T15:27:12;1.05;;;0.60;;
69047;SDS011;56119;50.118;8.642;2023-01-09T15:29:39;1.27;;;0.40;;
69047;SDS011;56119;50.118;8.642;2023-01-09T15:32:07;0.98;;;0.50;;
69047;SDS011;56119;50.118;8.642;2023-01-09T15:34:34;3.97;;;0.60;;
69047;SDS011;56119;50.118;8.642;2023-01-09T15:37:01;2.05;;;0.60;;
69047;SDS011;56119;50.118;8.642;2023-01-09T15:39:28;1.15;;;0.50;;
69047;SDS011;56119;50.118;8.642;2023-01-09T15:41:55;1.75;;;0.60;;
69047;SDS011;56119;50.118;8.642;2023-01-09T15:44:41;1.85;;;0.60;;
69047;SDS011;56119;50.118;8.642;2023-01-09T15:47:11;2.30;;;0.98;;
69047;SDS011;56119;50.118;8.642;2023-01-09T15:49:38;1.17;;;0.70;;
69047;SDS011;56119;50.118;8.642;2023-01-09T15:52:04;2.80;;;0.80;;
69047;SDS011;56119;50.118;8.642;2023-01-09T15:54:35;1.17;;;0.65;;
69047;SDS011;56119;50.118;8.642;2023-01-09T15:57:20;3.50;;;0.82;;
69047;SDS011;56119;50.118;8.642;2023-01-09T15:59:50;1.80;;;0.60;;
69047;SDS011;56119;50.118;8.642;2023-01-09T16:02:16;3.00;;;0.88;;
69047;SDS011;56119;50.118;8.642;2023-01-09T16:05:06;1.05;;;0.50;;
69047;SDS011;56119;50.118;8.642;2023-01-09T16:07:32;1.98;;;0.80;;
69047;SDS011;56119;50.118;8.642;2023-01-09T16:09:59;1.80;;;0.50;;
69047;SDS011;56119;50.118;8.642;2023-01-09T16:12:26;1.83;;;0.70;;
69047;SDS011;56119;50.118;8.642;2023-01-09T16:14:56;2.97;;;0.70;;
69047;SDS011;56119;50.118;8.642;2023-01-09T16:17:23;2.00;;;0.68;;
69047;SDS011;56119;50.118;8.642;2023-01-09T16:20:01;2.45;;;0.85;;
69047;SDS011;56119;50.118;8.642;2023-01-09T16:22:50;0.95;;;0.40;;
69047;SDS011;56119;50.118;8.642;2023-01-09T16:25:30;2.08;;;0.35;;
69047;SDS011;56119;50.118;8.642;2023-01-09T16:30:50;1.00;;;0.50;;
69047;SDS011;56119;50.118;8.642;2023-01-09T16:33:23;2.17;;;0.60;;
69047;SDS011;56119;50.118;8.642;2023-01-09T16:35:50;2.40;;;0.50;;
69047;SDS011;56119;50.118;8.642;2023-01-09T16:38:16;0.93;;;0.57;;
69047;SDS011;56119;50.118;8.642;2023-01-09T16:40:57;2.35;;;0.80;;
69047;SDS011;56119;50.118;8.642;2023-01-09T16:43:43;1.45;;;0.52;;
69047;SDS011;56119;50.118;8.642;2023-01-09T16:46:09;1.45;;;0.80;;
69047;SDS011;56119;50.118;8.642;2023-01-09T16:48:36;3.10;;;0.95;;
69047;SDS011;56119;50.118;8.642;2023-01-09T16:51:03;1.60;;;0.60;;
69047;SDS011;56119;50.118;8.642;2023-01-09T16:53:29;2.00;;;0.88;;
69047;SDS011;56119;50.118;8.642;2023-01-09T16:55:56;3.55;;;0.95;;